Terminal Aerodrome Forecast
Issued by NWS Newport/Morehead City, NC

Home | Current Version | Previous Version | Text Only | Print | Product List | Glossary On
Versions: 1 2 3 4 5 6 7 8 9 10 11 12
000
FTUS42 KMHX 062325
TAFEWN
TAF
KEWN 062325Z 0700/0724 07006KT P6SM SCT040 BKN150
     FM070900 04009KT P6SM SCT040 BKN100
     FM071400 07012G20KT P6SM SHRA SCT020 BKN040
     FM071800 06012G20KT 5SM SHRA BKN025=

USA.gov is the U.S. government's official web portal to all federal, state and local government web resources and services.